Terminal Aerodrome Forecast
Issued by NWS

Home | Current Version | Previous Version | Graphics & Text | Print | Product List | Glossary On
Versions: 1 2 3 4 5 6 7 8 9 10 11 12 13 14 15 16
000
FTUS43 KMPX 280700 AAA
TAFAXN
TAF AMD
KAXN 280757Z 2808/2906 34005KT P6SM OVC060
     FM281600 33010KT P6SM SCT040
     FM290100 33004KT P6SM SKC=

USA.gov is the U.S. government's official web portal to all federal, state and local government web resources and services.